createdAt,value
2023-03-04T00:02:12.905Z,5.90
2023-03-04T00:04:39.608Z,5.90
2023-03-04T00:07:06.287Z,5.90
2023-03-04T00:09:32.873Z,5.90
2023-03-04T00:11:59.517Z,5.90
2023-03-04T00:14:26.970Z,5.90
2023-03-04T00:16:54.464Z,5.90
2023-03-04T00:19:21.038Z,5.90
2023-03-04T00:21:47.573Z,5.90
2023-03-04T00:24:14.143Z,5.90
2023-03-04T00:26:41.111Z,6.00
2023-03-04T00:29:07.713Z,6.00
2023-03-04T00:31:34.344Z,6.00
2023-03-04T00:34:00.958Z,6.00
2023-03-04T00:36:27.619Z,6.00
2023-03-04T00:38:54.179Z,5.90
2023-03-04T00:41:20.921Z,5.90
2023-03-04T00:43:47.568Z,5.90
2023-03-04T00:46:14.123Z,5.90
2023-03-04T00:48:40.849Z,6.00
2023-03-04T00:51:07.728Z,5.90
2023-03-04T00:53:34.295Z,6.00
2023-03-04T00:56:01.177Z,6.00
2023-03-04T00:58:27.888Z,6.10
2023-03-04T01:00:54.550Z,6.00
2023-03-04T01:03:21.250Z,6.00
2023-03-04T01:05:47.817Z,6.00
2023-03-04T01:08:14.388Z,5.90
2023-03-04T01:10:41.112Z,5.90
2023-03-04T01:13:07.766Z,6.00
2023-03-04T01:15:34.340Z,6.00
2023-03-04T01:18:01.004Z,6.00
2023-03-04T01:20:27.590Z,6.00
2023-03-04T01:22:54.405Z,6.00
2023-03-04T01:25:21.020Z,6.00
2023-03-04T01:27:47.603Z,6.00
2023-03-04T01:30:14.419Z,6.00
2023-03-04T01:32:41.361Z,6.00
2023-03-04T01:35:08.575Z,6.00
2023-03-04T01:37:35.340Z,6.00
2023-03-04T01:40:02.199Z,6.00
2023-03-04T01:42:33.246Z,6.00
2023-03-04T01:45:00.023Z,6.00
2023-03-04T01:47:30.591Z,6.00
2023-03-04T01:49:58.273Z,6.00
2023-03-04T01:52:27.082Z,6.00
2023-03-04T01:54:53.821Z,6.00
2023-03-04T01:57:23.277Z,6.00
2023-03-04T02:00:19.557Z,5.90
2023-03-04T02:02:47.792Z,6.00
2023-03-04T02:05:15.038Z,6.00
2023-03-04T02:07:42.606Z,6.10
2023-03-04T02:10:10.814Z,6.00
2023-03-04T02:12:38.096Z,6.00
2023-03-04T02:15:05.709Z,6.00
2023-03-04T02:17:33.277Z,5.90
2023-03-04T02:20:23.117Z,6.00
2023-03-04T02:23:10.112Z,6.00
2023-03-04T02:25:45.407Z,5.90
2023-03-04T02:28:12.064Z,5.90
2023-03-04T02:30:38.837Z,5.90
2023-03-04T02:33:05.904Z,5.90
2023-03-04T02:35:32.878Z,6.00
2023-03-04T02:37:59.473Z,5.90
2023-03-04T02:40:33.160Z,5.90
2023-03-04T02:43:00.790Z,5.90
2023-03-04T02:45:41.576Z,5.90
2023-03-04T02:48:08.731Z,5.90
2023-03-04T02:50:40.648Z,5.90
2023-03-04T02:53:07.270Z,5.90
2023-03-04T02:55:34.153Z,5.90
2023-03-04T02:58:00.757Z,5.90
2023-03-04T03:00:27.784Z,5.90
2023-03-04T03:02:56.840Z,5.90
2023-03-04T03:05:26.459Z,5.90
2023-03-04T03:07:53.183Z,5.90
2023-03-04T03:10:20.268Z,5.90
2023-03-04T03:12:47.361Z,5.90
2023-03-04T03:15:14.738Z,6.00
2023-03-04T03:17:41.899Z,5.90
2023-03-04T03:20:10.522Z,5.90
2023-03-04T03:22:37.176Z,5.90
2023-03-04T03:25:04.680Z,5.90
2023-03-04T03:27:31.307Z,5.90
2023-03-04T03:29:57.927Z,5.90
2023-03-04T03:32:24.595Z,5.80
2023-03-04T03:34:51.200Z,5.90
2023-03-04T03:37:18.275Z,5.90
2023-03-04T03:39:44.845Z,5.90
2023-03-04T03:42:11.417Z,5.90
2023-03-04T03:44:37.975Z,5.90
2023-03-04T03:47:04.616Z,5.90
2023-03-04T03:49:31.228Z,5.80
2023-03-04T03:51:57.838Z,5.80
2023-03-04T03:54:24.432Z,5.90
2023-03-04T03:56:51.007Z,5.90
2023-03-04T03:59:17.567Z,5.90
2023-03-04T04:01:44.152Z,5.90
2023-03-04T04:04:10.963Z,5.90
2023-03-04T04:06:37.569Z,5.90
2023-03-04T04:09:04.187Z,5.90
2023-03-04T04:11:30.781Z,5.90
2023-03-04T04:13:57.341Z,5.90
2023-03-04T04:16:23.993Z,5.90
2023-03-04T04:18:50.601Z,5.80
2023-03-04T04:21:17.228Z,5.80
2023-03-04T04:23:43.852Z,5.80
2023-03-04T04:26:10.426Z,5.70
2023-03-04T04:28:37.035Z,5.70
2023-03-04T04:31:07.820Z,5.70
2023-03-04T04:33:35.272Z,5.70
2023-03-04T04:36:03.416Z,5.70
2023-03-04T04:38:30.030Z,5.70
2023-03-04T04:40:58.624Z,5.60
2023-03-04T04:43:25.715Z,5.60
2023-03-04T04:45:52.820Z,5.60
2023-03-04T04:48:19.483Z,5.70
2023-03-04T04:50:46.064Z,5.70
2023-03-04T04:53:14.210Z,5.60
2023-03-04T04:55:40.782Z,5.70
2023-03-04T04:58:07.987Z,5.70
2023-03-04T05:00:34.782Z,5.60
2023-03-04T05:03:01.436Z,5.60
2023-03-04T05:05:28.060Z,5.60
2023-03-04T05:07:54.682Z,5.60
2023-03-04T05:10:21.243Z,5.60
2023-03-04T05:12:47.802Z,5.60
2023-03-04T05:15:14.392Z,5.60
2023-03-04T05:17:40.945Z,5.50
2023-03-04T05:20:08.739Z,5.50
2023-03-04T05:22:35.377Z,5.50
2023-03-04T05:25:02.534Z,5.40
2023-03-04T05:27:29.131Z,5.40
2023-03-04T05:29:59.646Z,5.40
2023-03-04T05:32:26.313Z,5.40
2023-03-04T05:34:52.898Z,5.30
2023-03-04T05:37:19.472Z,5.30
2023-03-04T05:39:46.066Z,5.30
2023-03-04T05:42:12.624Z,5.30
2023-03-04T05:44:39.202Z,5.30
2023-03-04T05:47:05.767Z,5.30
2023-03-04T05:49:32.319Z,5.20
2023-03-04T05:51:58.873Z,5.30
2023-03-04T05:54:25.434Z,5.20
2023-03-04T05:56:52.019Z,5.20
2023-03-04T05:59:20.536Z,5.30
2023-03-04T06:01:48.252Z,5.30
2023-03-04T06:04:14.922Z,5.30
2023-03-04T06:06:41.590Z,5.40
2023-03-04T06:09:08.204Z,5.30
2023-03-04T06:11:36.380Z,5.30
2023-03-04T06:14:03.560Z,5.40
2023-03-04T06:16:30.288Z,5.40
2023-03-04T06:18:56.916Z,5.40
2023-03-04T06:21:23.917Z,5.30
2023-03-04T06:23:50.655Z,5.30
2023-03-04T06:26:17.645Z,5.30
2023-03-04T06:28:44.894Z,5.30
2023-03-04T06:31:12.727Z,5.20
2023-03-04T06:33:39.274Z,5.30
2023-03-04T06:36:06.385Z,5.20
2023-03-04T06:38:34.156Z,5.30
2023-03-04T06:41:08.712Z,5.40
2023-03-04T06:43:35.676Z,5.50
2023-03-04T06:46:02.504Z,5.60
2023-03-04T06:48:29.173Z,5.50
2023-03-04T06:50:56.379Z,5.60
2023-03-04T06:53:23.096Z,5.60
2023-03-04T06:55:50.333Z,5.60
2023-03-04T06:58:17.368Z,5.60
2023-03-04T07:00:45.134Z,5.70
2023-03-04T07:03:12.887Z,5.70
2023-03-04T07:05:39.594Z,5.80
2023-03-04T07:08:07.413Z,5.90
2023-03-04T07:10:34.151Z,6.00
2023-03-04T07:13:01.319Z,6.20
2023-03-04T07:15:28.368Z,6.30
2023-03-04T07:17:55.520Z,6.30
2023-03-04T07:20:22.408Z,6.40
2023-03-04T07:22:48.972Z,6.40
2023-03-04T07:25:15.732Z,6.40
2023-03-04T07:27:42.425Z,6.40
2023-03-04T07:30:09.826Z,6.50
2023-03-04T07:32:36.568Z,6.40
2023-03-04T07:35:04.162Z,6.40
2023-03-04T07:37:30.909Z,6.40
2023-03-04T07:39:57.474Z,6.40
2023-03-04T07:42:24.091Z,6.40
2023-03-04T07:44:50.649Z,6.40
2023-03-04T07:47:17.197Z,6.40
2023-03-04T07:49:43.760Z,6.40
2023-03-04T07:52:10.383Z,6.50
2023-03-04T07:54:37.044Z,6.40
2023-03-04T07:57:03.640Z,6.50
2023-03-04T07:59:30.240Z,6.50
2023-03-04T08:01:56.787Z,6.40
2023-03-04T08:04:23.409Z,6.40
2023-03-04T08:06:50.749Z,6.40
2023-03-04T08:09:17.424Z,6.40
2023-03-04T08:11:44.252Z,6.50
2023-03-04T08:14:14.939Z,6.50
2023-03-04T08:16:41.755Z,6.60
2023-03-04T08:19:09.098Z,6.60
2023-03-04T08:21:35.832Z,6.70
2023-03-04T08:24:08.005Z,6.70
2023-03-04T08:26:40.771Z,6.70
2023-03-04T08:29:09.059Z,6.80
2023-03-04T08:31:35.856Z,6.90
2023-03-04T08:34:04.258Z,6.90
2023-03-04T08:36:30.889Z,6.90
2023-03-04T08:38:57.542Z,7.00
2023-03-04T08:41:26.139Z,7.10
2023-03-04T08:43:52.828Z,7.10
2023-03-04T08:46:19.407Z,7.20
2023-03-04T08:48:46.008Z,7.40
2023-03-04T08:51:14.554Z,7.50
2023-03-04T08:53:41.440Z,7.70
2023-03-04T08:56:08.871Z,7.80
2023-03-04T08:58:35.636Z,8.00
2023-03-04T09:01:02.982Z,8.10
2023-03-04T09:03:30.046Z,8.20
2023-03-04T09:05:57.890Z,8.40
2023-03-04T09:08:24.637Z,8.50
2023-03-04T09:10:54.211Z,8.50
2023-03-04T09:13:23.980Z,8.50
2023-03-04T09:15:52.816Z,8.60
2023-03-04T09:18:21.302Z,8.80
2023-03-04T09:20:47.870Z,8.90
2023-03-04T09:23:14.904Z,9.00
2023-03-04T09:25:42.776Z,9.10
2023-03-04T09:28:11.053Z,9.00
2023-03-04T09:30:37.609Z,8.70
2023-03-04T09:33:04.549Z,8.20
2023-03-04T09:35:31.220Z,8.00
2023-03-04T09:37:58.938Z,7.80
2023-03-04T09:40:33.525Z,8.00
2023-03-04T09:43:03.466Z,9.60
2023-03-04T09:45:53.194Z,11.40
2023-03-04T09:48:26.929Z,13.40
2023-03-04T09:51:26.094Z,14.70
2023-03-04T09:54:18.438Z,14.40
2023-03-04T09:56:45.018Z,12.90
2023-03-04T09:59:17.106Z,11.70
2023-03-04T10:01:52.144Z,10.80
2023-03-04T10:04:26.350Z,10.00
2023-03-04T10:06:54.558Z,9.50
2023-03-04T10:09:28.704Z,9.00
2023-03-04T10:12:11.788Z,8.60
2023-03-04T10:14:53.370Z,8.20
2023-03-04T10:17:29.187Z,7.90
2023-03-04T10:20:14.538Z,7.70
2023-03-04T10:22:45.395Z,7.70
2023-03-04T10:25:28.480Z,7.80
2023-03-04T10:27:59.621Z,8.20
2023-03-04T10:30:50.959Z,8.70
2023-03-04T10:33:22.754Z,9.30
2023-03-04T10:35:59.262Z,9.90
2023-03-04T10:38:26.090Z,10.30
2023-03-04T10:40:52.666Z,10.40
2023-03-04T10:43:20.474Z,10.70
2023-03-04T10:45:48.701Z,10.80
2023-03-04T10:48:22.227Z,10.90
2023-03-04T10:50:49.091Z,11.00
2023-03-04T10:53:27.887Z,11.20
2023-03-04T10:55:54.484Z,11.70
2023-03-04T10:58:21.535Z,11.90
2023-03-04T11:01:06.930Z,11.70
2023-03-04T11:03:36.029Z,11.00
2023-03-04T11:06:16.845Z,10.30
2023-03-04T11:08:43.953Z,9.50
2023-03-04T11:11:38.635Z,8.90
2023-03-04T11:14:19.813Z,8.40
2023-03-04T11:16:54.831Z,8.20
2023-03-04T11:19:23.671Z,8.40
2023-03-04T11:21:52.392Z,9.60
2023-03-04T11:24:29.236Z,11.20
2023-03-04T11:27:08.003Z,12.50
2023-03-04T11:29:45.642Z,13.20
2023-03-04T11:32:22.737Z,13.20
2023-03-04T11:35:06.491Z,12.80
2023-03-04T11:37:53.227Z,12.10
2023-03-04T11:40:42.918Z,12.30
2023-03-04T11:43:21.662Z,12.70
2023-03-04T11:46:20.726Z,12.90
2023-03-04T11:49:08.685Z,13.00
2023-03-04T11:51:45.375Z,13.00
2023-03-04T11:54:47.645Z,12.90
2023-03-04T11:57:40.272Z,12.70
2023-03-04T12:00:45.531Z,12.10
2023-03-04T12:03:18.395Z,11.60
2023-03-04T12:06:12.314Z,11.60
2023-03-04T12:08:38.855Z,12.00
2023-03-04T12:11:32.052Z,12.30
2023-03-04T12:14:23.032Z,12.10
2023-03-04T12:17:34.115Z,11.50
2023-03-04T12:20:36.668Z,10.70
2023-03-04T12:23:14.152Z,10.10
2023-03-04T12:26:10.436Z,9.50
2023-03-04T12:28:58.344Z,9.10
2023-03-04T12:31:36.163Z,8.80
2023-03-04T12:34:23.422Z,8.80
2023-03-04T12:37:25.738Z,8.80
2023-03-04T12:40:05.860Z,9.10
2023-03-04T12:43:09.912Z,9.60
2023-03-04T12:45:55.208Z,10.20
2023-03-04T12:48:39.244Z,10.60
2023-03-04T12:51:29.138Z,10.80
2023-03-04T12:54:25.867Z,11.00
2023-03-04T12:57:01.155Z,11.10
2023-03-04T12:59:39.346Z,11.30
2023-03-04T13:02:43.594Z,11.10
2023-03-04T13:05:25.393Z,10.60
2023-03-04T13:08:11.528Z,10.00
2023-03-04T13:10:38.166Z,9.40
2023-03-04T13:13:05.623Z,9.10
2023-03-04T13:15:37.274Z,8.70
2023-03-04T13:18:32.339Z,8.40
2023-03-04T13:21:41.957Z,8.00
2023-03-04T13:24:48.477Z,7.70
2023-03-04T13:27:50.506Z,7.60
2023-03-04T13:30:32.426Z,7.70
2023-03-04T13:33:21.497Z,7.90
2023-03-04T13:36:02.013Z,8.10
2023-03-04T13:38:30.654Z,8.30
2023-03-04T13:41:00.334Z,8.40
2023-03-04T13:43:28.691Z,8.40
2023-03-04T13:45:55.422Z,8.30
2023-03-04T13:48:30.424Z,8.20
2023-03-04T13:50:58.035Z,8.10
2023-03-04T13:53:32.894Z,8.10
2023-03-04T13:56:08.404Z,8.10
2023-03-04T13:58:35.846Z,8.00
2023-03-04T14:01:02.906Z,8.00
2023-03-04T14:03:31.565Z,8.00
2023-03-04T14:06:15.351Z,8.00
2023-03-04T14:08:41.959Z,7.90
2023-03-04T14:11:38.428Z,7.90
2023-03-04T14:14:08.388Z,7.80
2023-03-04T14:16:40.737Z,7.80
2023-03-04T14:19:22.892Z,7.70
2023-03-04T14:21:49.591Z,7.60
2023-03-04T14:24:21.350Z,7.50
2023-03-04T14:26:48.873Z,7.30
2023-03-04T14:29:41.911Z,7.10
2023-03-04T14:32:08.685Z,7.00
2023-03-04T14:34:37.798Z,6.90
2023-03-04T14:37:19.426Z,6.90
2023-03-04T14:39:56.063Z,6.90
2023-03-04T14:42:25.096Z,6.90
2023-03-04T14:44:53.636Z,6.90
2023-03-04T14:47:39.451Z,7.00
2023-03-04T14:50:11.511Z,7.00
2023-03-04T14:52:41.180Z,7.20
2023-03-04T14:55:28.367Z,7.30
2023-03-04T14:58:06.310Z,7.30
2023-03-04T15:00:40.771Z,7.40
2023-03-04T15:03:25.495Z,7.30
2023-03-04T15:05:52.859Z,7.30
2023-03-04T15:08:34.540Z,7.20
2023-03-04T15:11:03.526Z,7.10
2023-03-04T15:13:51.386Z,7.00
2023-03-04T15:16:23.039Z,6.90
2023-03-04T15:19:06.198Z,6.80
2023-03-04T15:21:40.805Z,6.80
2023-03-04T15:24:09.626Z,6.90
2023-03-04T15:26:40.088Z,6.90
2023-03-04T15:29:20.095Z,7.00
2023-03-04T15:31:50.499Z,6.90
2023-03-04T15:34:19.219Z,6.90
2023-03-04T15:36:48.749Z,7.00
2023-03-04T15:39:17.815Z,6.90
2023-03-04T15:41:46.757Z,6.90
2023-03-04T15:44:13.515Z,6.80
2023-03-04T15:46:40.124Z,6.70
2023-03-04T15:49:06.676Z,6.70
2023-03-04T15:51:33.332Z,6.70
2023-03-04T15:54:00.682Z,6.70
2023-03-04T15:56:30.682Z,6.60
2023-03-04T15:59:01.411Z,6.60
2023-03-04T16:01:28.062Z,6.60
2023-03-04T16:03:54.623Z,6.50
2023-03-04T16:06:23.453Z,6.40
2023-03-04T16:08:51.286Z,6.20
2023-03-04T16:11:23.936Z,6.00
2023-03-04T16:13:50.904Z,5.70
2023-03-04T16:16:17.930Z,5.50
2023-03-04T16:18:45.072Z,5.40
2023-03-04T16:21:20.145Z,5.30
2023-03-04T16:23:49.737Z,5.20
2023-03-04T16:26:20.084Z,5.10
2023-03-04T16:28:46.680Z,5.10
2023-03-04T16:31:14.566Z,5.00
2023-03-04T16:33:41.874Z,4.90
2023-03-04T16:36:20.910Z,4.90
2023-03-04T16:38:47.526Z,4.90
2023-03-04T16:41:16.712Z,4.80
2023-03-04T16:43:43.806Z,4.80
2023-03-04T16:46:13.901Z,4.80
2023-03-04T16:48:40.950Z,4.70
2023-03-04T16:51:15.047Z,4.70
2023-03-04T16:53:44.563Z,4.70
2023-03-04T16:56:14.660Z,4.60
2023-03-04T16:58:42.425Z,4.60
2023-03-04T17:01:19.863Z,4.60
2023-03-04T17:03:46.687Z,4.50
2023-03-04T17:06:14.469Z,4.40
2023-03-04T17:08:42.001Z,4.40
2023-03-04T17:11:12.479Z,4.40
2023-03-04T17:13:39.063Z,4.50
2023-03-04T17:16:05.895Z,4.60
2023-03-04T17:18:32.968Z,4.60
2023-03-04T17:21:04.469Z,4.40
2023-03-04T17:23:31.008Z,4.30
2023-03-04T17:25:58.720Z,4.20
2023-03-04T17:28:26.444Z,4.10
2023-03-04T17:30:53.062Z,4.10
2023-03-04T17:33:20.113Z,4.10
2023-03-04T17:35:46.859Z,4.10
2023-03-04T17:38:14.514Z,4.10
2023-03-04T17:40:42.106Z,4.20
2023-03-04T17:43:12.088Z,4.20
2023-03-04T17:45:41.084Z,4.20
2023-03-04T17:48:14.639Z,4.10
2023-03-04T17:50:49.275Z,4.10
2023-03-04T17:53:15.952Z,4.00
2023-03-04T17:55:52.814Z,3.90
2023-03-04T17:58:19.711Z,3.90
2023-03-04T18:00:46.322Z,3.90
2023-03-04T18:03:13.770Z,3.90
2023-03-04T18:05:40.948Z,3.90
2023-03-04T18:08:07.756Z,4.00
2023-03-04T18:10:35.111Z,4.00
2023-03-04T18:13:01.867Z,4.00
2023-03-04T18:15:28.627Z,4.00
2023-03-04T18:17:55.287Z,3.90
2023-03-04T18:20:21.862Z,3.90
2023-03-04T18:22:48.696Z,3.90
2023-03-04T18:25:15.534Z,3.80
2023-03-04T18:27:42.395Z,3.80
2023-03-04T18:30:11.415Z,3.80
2023-03-04T18:32:51.076Z,3.80
2023-03-04T18:35:19.490Z,3.80
2023-03-04T18:37:46.365Z,3.80
2023-03-04T18:40:13.551Z,3.80
2023-03-04T18:42:40.372Z,3.70
2023-03-04T18:45:07.698Z,3.70
2023-03-04T18:47:34.312Z,3.70
2023-03-04T18:50:00.889Z,3.70
2023-03-04T18:52:27.504Z,3.70
2023-03-04T18:54:54.126Z,3.70
2023-03-04T18:57:20.734Z,3.60
2023-03-04T18:59:51.752Z,3.60
2023-03-04T19:02:22.337Z,3.60
2023-03-04T19:04:50.349Z,3.60
2023-03-04T19:07:16.970Z,3.60
2023-03-04T19:09:43.617Z,3.60
2023-03-04T19:12:10.500Z,3.70
2023-03-04T19:14:37.111Z,3.70
2023-03-04T19:17:03.857Z,3.70
2023-03-04T19:19:30.435Z,3.60
2023-03-04T19:21:57.075Z,3.60
2023-03-04T19:24:23.672Z,3.60
2023-03-04T19:26:50.424Z,3.50
2023-03-04T19:29:17.100Z,3.50
2023-03-04T19:31:43.738Z,3.50
2023-03-04T19:34:10.362Z,3.40
2023-03-04T19:36:37.605Z,3.40
2023-03-04T19:39:04.694Z,3.40
2023-03-04T19:41:31.254Z,3.40
2023-03-04T19:43:57.983Z,3.50
2023-03-04T19:46:27.384Z,3.60
2023-03-04T19:48:53.984Z,3.60
2023-03-04T19:51:23.537Z,3.60
2023-03-04T19:53:53.032Z,3.60
2023-03-04T19:56:21.512Z,3.60
2023-03-04T19:58:48.551Z,3.70
2023-03-04T20:01:20.003Z,3.60
2023-03-04T20:03:46.608Z,3.60
2023-03-04T20:06:13.184Z,3.60
2023-03-04T20:08:39.774Z,3.50
2023-03-04T20:11:07.869Z,3.50
2023-03-04T20:13:34.418Z,3.50
2023-03-04T20:16:01.012Z,3.50
2023-03-04T20:18:27.624Z,3.50
2023-03-04T20:20:56.748Z,3.50
2023-03-04T20:23:23.287Z,3.50
2023-03-04T20:25:49.857Z,3.50
2023-03-04T20:28:16.492Z,3.50
2023-03-04T20:30:43.056Z,3.50
2023-03-04T20:33:09.694Z,3.50
2023-03-04T20:35:36.344Z,3.40
2023-03-04T20:38:03.657Z,3.50
2023-03-04T20:40:30.278Z,3.40
2023-03-04T20:42:56.860Z,3.40
2023-03-04T20:45:24.710Z,3.40
2023-03-04T20:47:51.407Z,3.40
2023-03-04T20:50:18.721Z,3.40
2023-03-04T20:52:48.744Z,3.30
2023-03-04T20:55:15.376Z,3.30
2023-03-04T20:57:41.938Z,3.30
2023-03-04T21:00:09.405Z,3.30
2023-03-04T21:02:36.213Z,3.30
2023-03-04T21:05:02.931Z,3.30
2023-03-04T21:07:29.528Z,3.30
2023-03-04T21:09:56.886Z,3.40
2023-03-04T21:12:23.581Z,3.40
2023-03-04T21:14:50.456Z,3.40
2023-03-04T21:17:17.084Z,3.30
2023-03-04T21:19:43.631Z,3.40
2023-03-04T21:22:15.778Z,3.40
2023-03-04T21:24:43.835Z,3.40
2023-03-04T21:27:10.879Z,3.40
2023-03-04T21:29:37.473Z,3.40
2023-03-04T21:32:24.417Z,3.40
2023-03-04T21:34:53.705Z,3.40
2023-03-04T21:37:24.537Z,3.30
2023-03-04T21:39:51.198Z,3.30
2023-03-04T21:42:18.401Z,3.30
2023-03-04T21:44:49.738Z,3.30
2023-03-04T21:47:17.857Z,3.20
2023-03-04T21:49:44.534Z,3.20
2023-03-04T21:52:11.180Z,3.20
2023-03-04T21:54:37.728Z,3.30
2023-03-04T21:57:04.374Z,3.30
2023-03-04T21:59:30.954Z,3.30
2023-03-04T22:01:57.724Z,3.30
2023-03-04T22:04:24.358Z,3.30
2023-03-04T22:06:50.919Z,3.30
2023-03-04T22:09:17.607Z,3.30
2023-03-04T22:11:44.188Z,3.30
2023-03-04T22:14:11.160Z,3.30
2023-03-04T22:16:48.843Z,3.30
2023-03-04T22:19:20.932Z,3.30
2023-03-04T22:21:47.757Z,3.40
2023-03-04T22:24:14.310Z,3.40
2023-03-04T22:26:40.911Z,3.40
2023-03-04T22:29:07.491Z,3.40
2023-03-04T22:31:36.448Z,3.40
2023-03-04T22:34:09.207Z,3.40
2023-03-04T22:36:39.230Z,3.40
2023-03-04T22:39:08.392Z,3.40
2023-03-04T22:41:35.205Z,3.40
2023-03-04T22:44:01.938Z,3.40
2023-03-04T22:46:31.096Z,3.40
2023-03-04T22:49:06.812Z,3.40
2023-03-04T22:51:33.360Z,3.40
2023-03-04T22:54:00.073Z,3.50
2023-03-04T22:56:26.957Z,3.50
2023-03-04T22:58:53.678Z,3.40
2023-03-04T23:01:20.651Z,3.40
2023-03-04T23:03:48.411Z,3.30
2023-03-04T23:06:18.334Z,3.30
2023-03-04T23:08:46.671Z,3.20
2023-03-04T23:11:26.288Z,3.20
2023-03-04T23:13:53.931Z,3.20
2023-03-04T23:16:22.237Z,3.10
2023-03-04T23:18:49.957Z,3.10
2023-03-04T23:21:33.798Z,3.20
2023-03-04T23:24:02.405Z,3.20
2023-03-04T23:26:34.060Z,3.20
2023-03-04T23:29:02.841Z,3.20
2023-03-04T23:31:30.923Z,3.20
2023-03-04T23:33:58.473Z,3.20
2023-03-04T23:36:28.040Z,3.20
2023-03-04T23:38:54.994Z,3.20
2023-03-04T23:41:24.529Z,3.20
2023-03-04T23:43:53.874Z,3.20
2023-03-04T23:46:21.208Z,3.20
2023-03-04T23:48:48.678Z,3.20
2023-03-04T23:51:17.426Z,3.30
2023-03-04T23:53:44.591Z,3.30
2023-03-04T23:56:16.488Z,3.30
2023-03-04T23:58:43.787Z,3.20
